createdAt,value
2022-07-28T00:01:13.846Z,26.70
2022-07-28T00:03:41.758Z,26.60
2022-07-28T00:06:10.033Z,26.50
2022-07-28T00:08:39.054Z,26.40
2022-07-28T00:11:06.862Z,26.40
2022-07-28T00:13:34.731Z,26.60
2022-07-28T00:16:02.651Z,26.40
2022-07-28T00:18:30.599Z,26.30
2022-07-28T00:20:59.986Z,26.40
2022-07-28T00:23:38.890Z,26.10
2022-07-28T00:26:09.022Z,26.00
2022-07-28T00:28:37.082Z,26.10
2022-07-28T00:31:06.995Z,25.90
2022-07-28T00:33:37.283Z,25.90
2022-07-28T00:36:05.356Z,25.80
2022-07-28T00:38:35.230Z,25.80
2022-07-28T00:41:12.366Z,25.80
2022-07-28T00:43:45.872Z,25.60
2022-07-28T00:46:16.218Z,25.60
2022-07-28T00:48:46.501Z,25.60
2022-07-28T00:51:16.834Z,25.60
2022-07-28T00:53:45.475Z,25.50
2022-07-28T00:56:14.218Z,25.50
2022-07-28T00:58:42.416Z,25.50
2022-07-28T01:01:16.028Z,25.50
2022-07-28T01:03:47.756Z,25.50
2022-07-28T01:06:36.803Z,25.60
2022-07-28T01:09:23.360Z,25.70
2022-07-28T01:12:22.783Z,25.70
2022-07-28T01:14:57.138Z,25.60
2022-07-28T01:17:43.557Z,25.50
2022-07-28T01:20:20.652Z,25.40
2022-07-28T01:23:06.668Z,25.50
2022-07-28T01:25:40.751Z,25.40
2022-07-28T01:29:07.842Z,25.40
2022-07-28T01:31:43.159Z,25.50
2022-07-28T01:34:19.033Z,25.30
2022-07-28T01:36:52.680Z,25.30
2022-07-28T01:39:22.047Z,25.30
2022-07-28T01:41:52.344Z,25.20
2022-07-28T01:44:25.233Z,25.20
2022-07-28T01:46:54.905Z,25.10
2022-07-28T01:49:24.896Z,25.00
2022-07-28T01:51:53.750Z,25.10
2022-07-28T01:54:24.825Z,25.10
2022-07-28T01:56:54.631Z,25.20
2022-07-28T01:59:24.310Z,25.10
2022-07-28T02:01:53.411Z,25.10
2022-07-28T02:04:23.354Z,25.30
2022-07-28T02:06:52.929Z,25.20
2022-07-28T02:09:23.116Z,25.40
2022-07-28T02:11:53.383Z,25.40
2022-07-28T02:14:27.660Z,25.50
2022-07-28T02:16:58.915Z,25.30
2022-07-28T02:19:28.244Z,25.30
2022-07-28T02:21:57.858Z,25.00
2022-07-28T02:24:27.074Z,24.90
2022-07-28T02:27:00.977Z,24.90
2022-07-28T02:32:41.158Z,24.90
2022-07-28T02:35:24.744Z,24.80
2022-07-28T02:38:06.644Z,24.80
2022-07-28T02:40:37.456Z,24.90
2022-07-28T02:43:10.456Z,24.90
2022-07-28T02:45:41.851Z,24.80
2022-07-28T02:48:13.398Z,24.80
2022-07-28T02:50:43.054Z,24.70
2022-07-28T02:53:15.747Z,24.70
2022-07-28T02:55:48.980Z,24.70
2022-07-28T02:58:21.155Z,24.70
2022-07-28T03:00:51.072Z,24.60
2022-07-28T03:03:20.044Z,24.50
2022-07-28T03:05:48.797Z,24.60
2022-07-28T03:08:19.934Z,24.60
2022-07-28T03:10:47.805Z,24.50
2022-07-28T03:13:15.684Z,24.50
2022-07-28T03:15:43.538Z,24.50
2022-07-28T03:18:11.278Z,24.50
2022-07-28T03:20:39.127Z,24.30
2022-07-28T03:23:08.259Z,24.30
2022-07-28T03:25:44.710Z,24.30
2022-07-28T03:28:19.601Z,24.20
2022-07-28T03:30:56.162Z,24.30
2022-07-28T03:33:24.557Z,24.30
2022-07-28T03:35:53.754Z,24.30
2022-07-28T03:38:25.950Z,24.30
2022-07-28T03:40:55.789Z,24.30
2022-07-28T03:43:26.281Z,24.30
2022-07-28T03:45:54.029Z,24.30
2022-07-28T03:48:26.264Z,24.20
2022-07-28T03:50:53.985Z,24.20
2022-07-28T03:53:24.712Z,24.30
2022-07-28T03:55:53.739Z,24.20
2022-07-28T03:58:28.996Z,24.20
2022-07-28T04:00:58.022Z,24.20
2022-07-28T04:03:43.099Z,24.30
2022-07-28T04:06:15.545Z,24.20
2022-07-28T04:08:45.350Z,24.20
2022-07-28T04:11:13.294Z,24.20
2022-07-28T04:13:41.087Z,24.10
2022-07-28T04:16:08.957Z,24.10
2022-07-28T04:18:36.835Z,24.20
2022-07-28T04:21:04.962Z,24.40
2022-07-28T04:23:33.042Z,24.50
2022-07-28T04:26:00.823Z,24.40
2022-07-28T04:28:28.645Z,24.40
2022-07-28T04:30:56.482Z,24.40
2022-07-28T04:33:25.061Z,24.50
2022-07-28T04:35:53.379Z,24.50
2022-07-28T04:38:21.436Z,24.60
2022-07-28T04:40:49.897Z,24.60
2022-07-28T04:43:18.222Z,24.80
2022-07-28T04:45:53.198Z,24.80
2022-07-28T04:48:23.606Z,24.90
2022-07-28T04:50:53.368Z,24.90
2022-07-28T04:53:23.440Z,25.10
2022-07-28T04:55:53.626Z,25.30
2022-07-28T04:58:24.011Z,25.30
2022-07-28T05:00:52.151Z,25.40
2022-07-28T05:03:20.856Z,25.50
2022-07-28T05:05:53.979Z,25.50
2022-07-28T05:08:26.176Z,25.50
2022-07-28T05:10:57.205Z,25.40
2022-07-28T05:13:30.412Z,25.50
2022-07-28T05:16:01.561Z,25.50
2022-07-28T05:18:31.298Z,25.50
2022-07-28T05:20:59.125Z,25.50
2022-07-28T05:23:27.036Z,25.60
2022-07-28T05:25:54.820Z,25.70
2022-07-28T05:28:22.970Z,25.70
2022-07-28T05:30:50.960Z,25.70
2022-07-28T05:33:18.926Z,25.90
2022-07-28T05:35:53.454Z,25.90
2022-07-28T05:38:22.331Z,26.10
2022-07-28T05:40:50.539Z,26.30
2022-07-28T05:43:19.621Z,26.40
2022-07-28T05:45:48.586Z,26.40
2022-07-28T05:48:20.658Z,26.60
2022-07-28T05:50:50.155Z,26.60
2022-07-28T05:53:19.571Z,26.70
2022-07-28T05:56:00.760Z,26.80
2022-07-28T05:58:31.647Z,26.90
2022-07-28T06:01:03.239Z,26.90
2022-07-28T06:03:35.896Z,26.90
2022-07-28T06:06:15.084Z,27.00
2022-07-28T06:08:47.885Z,27.00
2022-07-28T06:11:22.197Z,27.20
2022-07-28T06:13:51.680Z,27.30
2022-07-28T06:16:21.263Z,27.30
2022-07-28T06:18:50.563Z,27.40
2022-07-28T06:21:18.619Z,27.40
2022-07-28T06:23:46.449Z,27.40
2022-07-28T06:26:14.468Z,27.50
2022-07-28T06:28:42.304Z,27.60
2022-07-28T06:31:10.244Z,27.60
2022-07-28T06:33:38.600Z,27.70
2022-07-28T06:36:06.740Z,27.80
2022-07-28T06:38:34.748Z,27.80
2022-07-28T06:41:02.540Z,27.90
2022-07-28T06:43:30.694Z,27.90
2022-07-28T06:45:58.677Z,27.80
2022-07-28T06:48:29.319Z,27.90
2022-07-28T06:50:59.851Z,28.00
2022-07-28T06:53:28.055Z,28.00
2022-07-28T06:56:02.620Z,28.10
2022-07-28T06:58:31.943Z,28.10
2022-07-28T07:01:00.095Z,28.20
2022-07-28T07:03:28.007Z,28.10
2022-07-28T07:05:56.012Z,28.20
2022-07-28T07:08:23.767Z,28.30
2022-07-28T07:10:51.701Z,28.20
2022-07-28T07:13:19.538Z,28.10
2022-07-28T07:15:47.459Z,28.20
2022-07-28T07:18:15.366Z,28.20
2022-07-28T07:20:43.401Z,28.10
2022-07-28T07:23:11.169Z,28.00
2022-07-28T07:25:40.194Z,28.10
2022-07-28T07:28:08.038Z,28.20
2022-07-28T07:30:35.792Z,28.30
2022-07-28T07:33:03.662Z,28.30
2022-07-28T07:35:38.064Z,28.50
2022-07-28T07:38:06.417Z,28.40
2022-07-28T07:40:34.314Z,28.50
2022-07-28T07:43:02.250Z,28.60
2022-07-28T07:45:30.260Z,28.60
2022-07-28T07:47:58.141Z,28.70
2022-07-28T07:50:25.864Z,28.70
2022-07-28T07:52:53.734Z,28.80
2022-07-28T07:55:21.629Z,28.70
2022-07-28T07:57:49.395Z,28.70
2022-07-28T08:00:28.801Z,28.80
2022-07-28T08:03:01.206Z,28.80
2022-07-28T08:05:36.057Z,29.00
2022-07-28T08:08:07.770Z,28.90
2022-07-28T08:10:36.558Z,29.00
2022-07-28T08:13:06.403Z,29.00
2022-07-28T08:15:35.281Z,29.00
2022-07-28T08:18:03.698Z,29.00
2022-07-28T08:20:31.505Z,29.10
2022-07-28T08:22:59.325Z,29.20
2022-07-28T08:25:27.334Z,29.20
2022-07-28T08:27:55.222Z,29.30
2022-07-28T08:30:26.269Z,29.40
2022-07-28T08:32:58.117Z,29.50
2022-07-28T08:35:35.419Z,29.60
2022-07-28T08:38:05.582Z,29.50
2022-07-28T08:40:36.725Z,29.60
2022-07-28T08:43:04.774Z,29.70
2022-07-28T08:45:37.086Z,29.50
2022-07-28T08:48:08.799Z,29.70
2022-07-28T08:50:39.543Z,29.70
2022-07-28T08:53:08.887Z,29.70
2022-07-28T08:55:37.847Z,29.80
2022-07-28T08:58:06.179Z,29.80
2022-07-28T09:00:34.070Z,29.90
2022-07-28T09:03:03.696Z,29.90
2022-07-28T09:05:32.401Z,29.90
2022-07-28T09:08:01.149Z,30.00
2022-07-28T09:10:28.980Z,30.10
2022-07-28T09:12:56.710Z,30.30
2022-07-28T09:15:24.745Z,30.30
2022-07-28T09:17:52.663Z,30.40
2022-07-28T09:20:20.843Z,30.40
2022-07-28T09:23:03.652Z,30.40
2022-07-28T09:25:31.802Z,30.40
2022-07-28T09:28:10.702Z,30.40
2022-07-28T09:30:51.833Z,30.50
2022-07-28T09:33:42.530Z,30.60
2022-07-28T09:36:16.202Z,30.60
2022-07-28T09:38:45.117Z,30.60
2022-07-28T09:41:13.268Z,30.70
2022-07-28T09:43:47.004Z,30.80
2022-07-28T09:46:23.676Z,30.90
2022-07-28T09:48:59.279Z,31.00
2022-07-28T09:51:29.316Z,30.90
2022-07-28T09:54:20.501Z,30.90
2022-07-28T09:56:48.475Z,31.00
2022-07-28T09:59:18.417Z,30.90
2022-07-28T10:02:02.864Z,31.00
2022-07-28T10:04:35.429Z,31.00
2022-07-28T10:07:15.937Z,31.10
2022-07-28T10:09:44.363Z,31.10
2022-07-28T10:12:23.542Z,31.20
2022-07-28T10:14:53.712Z,31.10
2022-07-28T10:17:32.792Z,31.30
2022-07-28T10:20:06.238Z,31.40
2022-07-28T10:22:39.514Z,31.40
2022-07-28T10:25:12.907Z,31.40
2022-07-28T10:27:42.064Z,31.50
2022-07-28T10:30:11.193Z,31.60
2022-07-28T10:32:42.660Z,31.60
2022-07-28T10:35:17.195Z,31.60
2022-07-28T10:37:52.785Z,31.60
2022-07-28T10:40:27.110Z,31.80
2022-07-28T10:42:56.668Z,32.00
2022-07-28T10:45:42.037Z,32.10
2022-07-28T10:48:13.967Z,32.00
2022-07-28T10:50:42.311Z,32.10
2022-07-28T10:53:14.756Z,32.30
2022-07-28T10:55:51.011Z,32.30
2022-07-28T10:59:04.725Z,32.40
2022-07-28T11:01:49.712Z,32.60
2022-07-28T11:04:45.416Z,32.50
2022-07-28T11:07:18.158Z,32.60
2022-07-28T11:09:49.894Z,32.70
2022-07-28T11:12:53.966Z,32.60
2022-07-28T11:15:32.506Z,32.60
2022-07-28T11:18:08.822Z,32.60
2022-07-28T11:20:58.555Z,32.60
2022-07-28T11:23:46.818Z,32.70
2022-07-28T11:26:39.270Z,32.80
2022-07-28T11:29:14.158Z,32.60
2022-07-28T11:31:45.237Z,32.60
2022-07-28T11:34:17.874Z,32.60
2022-07-28T11:37:15.246Z,32.80
2022-07-28T11:39:44.221Z,32.90
2022-07-28T11:42:28.241Z,33.00
2022-07-28T11:44:58.111Z,33.00
2022-07-28T11:47:28.622Z,33.00
2022-07-28T11:50:17.048Z,32.90
2022-07-28T11:52:56.878Z,32.80
2022-07-28T11:55:55.849Z,33.10
2022-07-28T11:58:25.617Z,33.10
2022-07-28T12:01:17.355Z,33.40
2022-07-28T12:03:50.401Z,33.40
2022-07-28T12:06:28.827Z,33.40
2022-07-28T12:09:00.316Z,33.40
2022-07-28T12:11:31.925Z,33.30
2022-07-28T12:14:08.118Z,33.30
2022-07-28T12:16:38.347Z,33.50
2022-07-28T12:19:08.821Z,33.60
2022-07-28T12:21:47.680Z,33.60
2022-07-28T12:24:19.350Z,33.60
2022-07-28T12:26:50.034Z,33.70
2022-07-28T12:29:19.754Z,33.80
2022-07-28T12:32:02.234Z,33.60
2022-07-28T12:34:32.755Z,33.80
2022-07-28T12:37:02.523Z,33.90
2022-07-28T12:39:32.705Z,33.80
2022-07-28T12:42:04.574Z,33.70
2022-07-28T12:44:37.188Z,33.50
2022-07-28T12:47:08.009Z,33.40
2022-07-28T12:49:37.741Z,33.40
2022-07-28T12:52:22.404Z,33.20
2022-07-28T12:54:54.651Z,33.10
2022-07-28T12:57:49.814Z,32.90
2022-07-28T13:00:22.008Z,32.70
2022-07-28T13:02:51.759Z,32.50
2022-07-28T13:05:29.817Z,32.30
2022-07-28T13:08:06.207Z,32.40
2022-07-28T13:10:34.083Z,32.60
2022-07-28T13:13:06.696Z,32.90
2022-07-28T13:15:35.106Z,33.00
2022-07-28T13:18:03.100Z,33.20
2022-07-28T13:20:35.033Z,33.40
2022-07-28T13:23:02.861Z,33.50
2022-07-28T13:25:30.782Z,33.40
2022-07-28T13:27:59.978Z,33.30
2022-07-28T13:30:27.749Z,33.30
2022-07-28T13:32:56.844Z,33.00
2022-07-28T13:35:24.863Z,33.00
2022-07-28T13:37:52.740Z,33.30
2022-07-28T13:40:20.764Z,33.50
2022-07-28T13:42:52.487Z,33.50
2022-07-28T13:45:22.189Z,33.80
2022-07-28T13:47:52.139Z,34.20
2022-07-28T13:50:20.655Z,34.40
2022-07-28T13:52:48.839Z,34.30
2022-07-28T13:55:19.711Z,34.20
2022-07-28T13:57:51.620Z,34.10
2022-07-28T14:00:22.637Z,34.10
2022-07-28T14:02:52.068Z,34.10
2022-07-28T14:05:20.176Z,34.30
2022-07-28T14:07:49.665Z,34.10
2022-07-28T14:10:18.578Z,34.00
2022-07-28T14:12:46.814Z,33.70
2022-07-28T14:15:15.553Z,33.70
2022-07-28T14:17:46.020Z,33.70
2022-07-28T14:20:15.328Z,33.60
2022-07-28T14:22:44.626Z,33.70
2022-07-28T14:25:20.748Z,33.90
2022-07-28T14:27:50.956Z,33.70
2022-07-28T14:30:20.753Z,33.60
2022-07-28T14:32:49.576Z,33.60
2022-07-28T14:35:18.025Z,33.80
2022-07-28T14:38:35.145Z,33.70
2022-07-28T14:40:36.508Z,33.70
2022-07-28T14:43:08.154Z,33.70
2022-07-28T14:45:51.342Z,33.50
2022-07-28T14:48:24.285Z,33.30
2022-07-28T14:50:52.666Z,33.30
2022-07-28T14:53:22.333Z,33.30
2022-07-28T14:55:50.225Z,33.10
2022-07-28T14:58:18.297Z,33.20
2022-07-28T15:00:46.286Z,33.00
2022-07-28T15:03:14.533Z,33.00
2022-07-28T15:05:42.458Z,33.10
2022-07-28T15:08:10.382Z,33.00
2022-07-28T15:10:38.357Z,33.00
2022-07-28T15:13:06.374Z,32.90
2022-07-28T15:15:34.966Z,32.80
2022-07-28T15:18:03.901Z,32.80
2022-07-28T15:20:31.750Z,32.70
2022-07-28T15:22:59.495Z,32.70
2022-07-28T15:25:27.295Z,32.70
2022-07-28T15:27:55.513Z,32.60
2022-07-28T15:30:23.889Z,32.60
2022-07-28T15:32:57.143Z,32.50
2022-07-28T15:35:26.081Z,32.60
2022-07-28T15:37:54.877Z,32.70
2022-07-28T15:40:23.563Z,32.90
2022-07-28T15:42:53.054Z,33.10
2022-07-28T15:45:21.030Z,33.20
2022-07-28T15:47:49.275Z,33.60
2022-07-28T15:50:17.517Z,33.50
2022-07-28T15:52:45.561Z,33.40
2022-07-28T15:55:13.589Z,33.30
2022-07-28T15:57:41.419Z,33.30
2022-07-28T16:00:09.844Z,33.30
2022-07-28T16:02:37.778Z,33.10
2022-07-28T16:05:06.298Z,33.00
2022-07-28T16:07:35.961Z,32.90
2022-07-28T16:10:04.821Z,32.90
2022-07-28T16:12:33.661Z,32.70
2022-07-28T16:15:01.826Z,32.80
2022-07-28T16:17:29.717Z,32.70
2022-07-28T16:20:02.385Z,32.60
2022-07-28T16:22:30.927Z,32.50
2022-07-28T16:24:59.005Z,32.40
2022-07-28T16:27:27.595Z,32.40
2022-07-28T16:29:55.827Z,32.40
2022-07-28T16:32:24.511Z,32.60
2022-07-28T16:34:53.943Z,32.60
2022-07-28T16:37:21.824Z,32.50
2022-07-28T16:39:49.814Z,32.40
2022-07-28T16:42:18.102Z,32.40
2022-07-28T16:44:46.156Z,32.50
2022-07-28T16:47:14.331Z,32.60
2022-07-28T16:49:45.904Z,32.30
2022-07-28T16:52:15.286Z,32.30
2022-07-28T16:54:43.603Z,32.10
2022-07-28T16:57:11.731Z,32.00
2022-07-28T16:59:48.505Z,32.00
2022-07-28T17:02:19.335Z,31.90
2022-07-28T17:04:47.762Z,31.90
2022-07-28T17:07:15.775Z,31.90
2022-07-28T17:09:44.478Z,31.90
2022-07-28T17:12:12.489Z,31.90
2022-07-28T17:14:40.275Z,32.10
2022-07-28T17:17:08.151Z,32.20
2022-07-28T17:19:36.094Z,32.10
2022-07-28T17:22:07.188Z,32.10
2022-07-28T17:24:35.222Z,32.00
2022-07-28T17:29:51.526Z,31.60
2022-07-28T17:32:19.651Z,31.60
2022-07-28T17:34:47.979Z,31.40
2022-07-28T17:37:15.816Z,31.30
2022-07-28T17:39:43.819Z,31.30
2022-07-28T17:42:11.630Z,31.20
2022-07-28T17:44:39.653Z,31.30
2022-07-28T17:47:07.606Z,31.20
2022-07-28T17:49:39.823Z,31.10
2022-07-28T17:52:10.058Z,31.30
2022-07-28T17:54:57.239Z,31.40
2022-07-28T17:57:25.595Z,31.30
2022-07-28T17:59:55.130Z,31.20
2022-07-28T18:02:23.028Z,30.90
2022-07-28T18:04:50.915Z,30.70
2022-07-28T18:07:18.786Z,30.60
2022-07-28T18:09:46.697Z,30.50
2022-07-28T18:12:14.484Z,30.50
2022-07-28T18:14:42.291Z,30.40
2022-07-28T18:17:10.028Z,30.40
2022-07-28T18:19:40.937Z,30.30
2022-07-28T18:22:12.859Z,30.30
2022-07-28T18:24:40.815Z,30.20
2022-07-28T18:27:08.891Z,30.20
2022-07-28T18:29:38.225Z,30.10
2022-07-28T18:32:09.662Z,30.20
2022-07-28T18:34:40.503Z,30.20
2022-07-28T18:37:08.315Z,30.10
2022-07-28T18:39:36.290Z,30.00
2022-07-28T18:42:04.559Z,30.00
2022-07-28T18:44:32.935Z,29.80
2022-07-28T18:47:01.961Z,29.70
2022-07-28T18:49:37.775Z,29.60
2022-07-28T18:52:07.010Z,29.50
2022-07-28T18:54:35.709Z,29.40
2022-07-28T18:57:03.570Z,29.40
2022-07-28T18:59:32.670Z,29.30
2022-07-28T19:02:00.622Z,29.40
2022-07-28T19:04:28.684Z,29.40
2022-07-28T19:06:56.659Z,29.40
2022-07-28T19:09:24.582Z,29.20
2022-07-28T19:11:52.383Z,29.00
2022-07-28T19:14:20.649Z,28.80
2022-07-28T19:16:48.806Z,28.80
2022-07-28T19:19:16.776Z,28.80
2022-07-28T19:21:45.289Z,28.80
2022-07-28T19:24:17.222Z,28.90
2022-07-28T19:26:46.938Z,28.80
2022-07-28T19:29:14.751Z,28.70
2022-07-28T19:31:42.994Z,28.80
2022-07-28T19:34:11.250Z,28.70
2022-07-28T19:36:41.948Z,28.60
2022-07-28T19:39:10.700Z,28.60
2022-07-28T19:41:39.342Z,28.50
2022-07-28T19:44:07.736Z,28.50
2022-07-28T19:46:35.892Z,28.50
2022-07-28T19:49:07.733Z,28.40
2022-07-28T19:51:36.231Z,28.40
2022-07-28T19:54:05.347Z,28.40
2022-07-28T19:56:33.818Z,28.30
2022-07-28T19:59:02.361Z,28.40
2022-07-28T20:01:30.290Z,28.50
2022-07-28T20:04:03.181Z,28.50
2022-07-28T20:06:33.456Z,28.60
2022-07-28T20:09:02.256Z,28.60
2022-07-28T20:11:30.359Z,28.70
2022-07-28T20:13:58.259Z,28.80
2022-07-28T20:16:26.669Z,28.80
2022-07-28T20:18:54.550Z,28.70
2022-07-28T20:21:24.293Z,28.70
2022-07-28T20:23:55.438Z,28.40
2022-07-28T20:26:29.001Z,28.30
2022-07-28T20:29:02.040Z,28.20
2022-07-28T20:31:30.617Z,28.20
2022-07-28T20:33:58.697Z,28.10
2022-07-28T20:36:29.834Z,27.90
2022-07-28T20:38:58.290Z,27.80
2022-07-28T20:41:26.471Z,27.80
2022-07-28T20:44:26.222Z,27.60
2022-07-28T20:46:43.001Z,27.60
2022-07-28T20:49:11.199Z,27.60
2022-07-28T20:51:39.121Z,27.60
2022-07-28T20:54:07.166Z,27.60
2022-07-28T20:56:35.092Z,27.50
2022-07-28T20:59:06.776Z,27.30
2022-07-28T21:01:34.881Z,27.50
2022-07-28T21:04:02.640Z,27.60
2022-07-28T21:06:30.908Z,27.40
2022-07-28T21:09:00.900Z,27.40
2022-07-28T21:11:29.400Z,27.50
2022-07-28T21:14:03.544Z,27.40
2022-07-28T21:16:32.419Z,27.50
2022-07-28T21:19:00.579Z,27.40
2022-07-28T21:21:29.203Z,27.30
2022-07-28T21:23:57.045Z,27.30
2022-07-28T21:26:24.829Z,27.40
2022-07-28T21:29:11.002Z,27.50
2022-07-28T21:32:05.241Z,27.60
2022-07-28T21:34:30.436Z,27.50
2022-07-28T21:36:58.953Z,27.30
2022-07-28T21:39:26.742Z,27.40
2022-07-28T21:41:54.559Z,27.40
2022-07-28T21:44:23.183Z,27.40
2022-07-28T21:46:51.308Z,27.50
2022-07-28T21:49:19.198Z,27.50
2022-07-28T21:51:47.346Z,27.50
2022-07-28T21:54:15.436Z,27.30
2022-07-28T21:56:43.475Z,27.40
2022-07-28T21:59:11.245Z,27.50
2022-07-28T22:01:39.163Z,27.40
2022-07-28T22:04:07.113Z,27.40
2022-07-28T22:06:34.855Z,27.40
2022-07-28T22:09:02.859Z,27.30
2022-07-28T22:11:30.972Z,27.30
2022-07-28T22:13:58.772Z,27.30
2022-07-28T22:16:26.699Z,27.30
2022-07-28T22:18:54.500Z,27.30
2022-07-28T22:21:22.292Z,27.30
2022-07-28T22:23:51.038Z,27.30
2022-07-28T22:26:18.898Z,26.70
2022-07-28T22:28:46.824Z,26.20
2022-07-28T22:31:15.374Z,25.60
2022-07-28T22:33:43.340Z,25.30
2022-07-28T22:36:11.008Z,25.10
2022-07-28T22:38:39.542Z,24.90
2022-07-28T22:41:07.356Z,24.90
2022-07-28T22:43:35.815Z,24.80
2022-07-28T22:46:03.986Z,24.70
2022-07-28T22:48:32.209Z,24.60
2022-07-28T22:50:59.976Z,24.50
2022-07-28T22:53:27.813Z,24.40
2022-07-28T22:58:40.939Z,24.20
2022-07-28T23:01:08.935Z,24.20
2022-07-28T23:03:37.298Z,24.20
2022-07-28T23:06:06.220Z,24.20
2022-07-28T23:08:34.084Z,24.30
2022-07-28T23:11:02.235Z,24.20
2022-07-28T23:13:30.142Z,24.30
2022-07-28T23:15:58.067Z,24.30
2022-07-28T23:18:26.091Z,24.20
2022-07-28T23:20:53.953Z,24.30
2022-07-28T23:23:21.790Z,24.30
2022-07-28T23:25:49.699Z,24.40
2022-07-28T23:28:17.587Z,24.30
2022-07-28T23:30:47.567Z,24.20
2022-07-28T23:33:56.632Z,23.90
2022-07-28T23:36:04.913Z,23.90
2022-07-28T23:38:32.793Z,23.80
2022-07-28T23:41:00.901Z,23.80
2022-07-28T23:43:30.796Z,23.90
2022-07-28T23:45:58.780Z,23.90
2022-07-28T23:48:26.700Z,23.80
2022-07-28T23:50:54.667Z,24.00
2022-07-28T23:53:22.499Z,24.10
2022-07-28T23:55:50.745Z,24.20
2022-07-28T23:58:18.605Z,24.30
